createdAt,value
2018-08-27T00:01:11.235Z,13.00
2018-08-27T00:03:39.660Z,13.20
2018-08-27T00:06:08.775Z,13.20
2018-08-27T00:08:37.204Z,13.10
2018-08-27T00:11:05.824Z,13.20
2018-08-27T00:13:34.241Z,13.20
2018-08-27T00:16:02.705Z,13.20
2018-08-27T00:18:31.141Z,13.30
2018-08-27T00:20:59.898Z,13.30
2018-08-27T00:23:35.073Z,13.30
2018-08-27T00:26:03.503Z,13.30
2018-08-27T00:28:31.948Z,13.30
2018-08-27T00:31:00.378Z,13.40
2018-08-27T00:33:28.821Z,13.20
2018-08-27T00:35:57.285Z,13.30
2018-08-27T00:38:25.718Z,13.40
2018-08-27T00:40:54.162Z,13.50
2018-08-27T00:43:22.587Z,13.50
2018-08-27T00:45:51.045Z,13.50
2018-08-27T00:48:19.491Z,13.40
2018-08-27T00:50:47.941Z,13.60
2018-08-27T00:53:16.377Z,13.60
2018-08-27T00:55:44.825Z,13.50
2018-08-27T00:58:13.264Z,13.50
2018-08-27T01:00:41.724Z,13.20
2018-08-27T01:03:10.154Z,13.20
2018-08-27T01:05:38.577Z,13.20
2018-08-27T01:08:07.037Z,13.20
2018-08-27T01:10:36.145Z,13.20
2018-08-27T01:13:04.597Z,13.30
2018-08-27T01:15:33.046Z,13.40
2018-08-27T01:18:01.478Z,13.40
2018-08-27T01:20:29.925Z,13.50
2018-08-27T01:22:58.378Z,13.60
2018-08-27T01:25:26.851Z,13.70
2018-08-27T01:27:55.273Z,13.80
2018-08-27T01:30:23.733Z,14.00
2018-08-27T01:32:52.195Z,13.90
2018-08-27T01:35:20.645Z,13.90
2018-08-27T01:37:49.085Z,14.00
2018-08-27T01:40:17.553Z,14.00
2018-08-27T01:42:45.977Z,14.10
2018-08-27T01:45:14.399Z,14.10
2018-08-27T01:47:42.901Z,14.20
2018-08-27T01:50:11.320Z,14.10
2018-08-27T01:52:39.763Z,13.90
2018-08-27T01:55:08.181Z,13.90
2018-08-27T01:57:36.637Z,13.80
2018-08-27T02:00:05.761Z,13.80
2018-08-27T02:02:34.218Z,13.80
2018-08-27T02:05:02.670Z,13.80
2018-08-27T02:07:31.106Z,13.80
2018-08-27T02:09:59.540Z,13.70
2018-08-27T02:12:27.990Z,13.60
2018-08-27T02:14:56.450Z,13.50
2018-08-27T02:17:24.893Z,13.50
2018-08-27T02:19:53.325Z,13.50
2018-08-27T02:22:21.778Z,13.40
2018-08-27T02:24:50.228Z,13.50
2018-08-27T02:27:18.705Z,13.50
2018-08-27T02:29:47.248Z,13.50
2018-08-27T02:32:15.698Z,13.50
2018-08-27T02:34:44.135Z,13.50
2018-08-27T02:37:12.621Z,13.50
2018-08-27T02:39:41.045Z,13.50
2018-08-27T02:42:09.498Z,13.40
2018-08-27T02:44:37.924Z,13.20
2018-08-27T02:47:06.613Z,13.10
2018-08-27T02:49:35.035Z,13.10
2018-08-27T02:52:03.490Z,13.10
2018-08-27T02:54:31.920Z,13.10
2018-08-27T02:57:00.385Z,13.10
2018-08-27T02:59:28.914Z,13.20
2018-08-27T03:01:57.381Z,13.30
2018-08-27T03:04:25.805Z,13.30
2018-08-27T03:06:54.254Z,13.40
2018-08-27T03:09:22.683Z,13.40
2018-08-27T03:11:51.611Z,13.40
2018-08-27T03:14:20.052Z,13.40
2018-08-27T03:16:48.509Z,13.40
2018-08-27T03:19:16.948Z,13.40
2018-08-27T03:21:45.393Z,13.40
2018-08-27T03:24:13.844Z,13.40
2018-08-27T03:26:42.280Z,13.60
2018-08-27T03:29:10.737Z,13.50
2018-08-27T03:31:39.286Z,13.60
2018-08-27T03:34:07.741Z,13.70
2018-08-27T03:36:36.195Z,13.70
2018-08-27T03:39:08.003Z,13.80
2018-08-27T03:41:36.478Z,13.80
2018-08-27T03:44:04.949Z,13.90
2018-08-27T03:46:33.391Z,13.90
2018-08-27T03:49:02.431Z,14.00
2018-08-27T03:51:30.887Z,14.00
2018-08-27T03:53:59.410Z,14.10
2018-08-27T03:56:27.862Z,14.10
2018-08-27T03:58:56.316Z,14.10
2018-08-27T04:01:24.774Z,14.20
2018-08-27T04:03:53.202Z,14.10
2018-08-27T04:06:21.654Z,14.20
2018-08-27T04:08:50.110Z,14.10
2018-08-27T04:11:18.570Z,14.10
2018-08-27T04:13:47.099Z,14.20
2018-08-27T04:16:15.568Z,14.20
2018-08-27T04:18:44.016Z,14.20
2018-08-27T04:21:12.480Z,14.30
2018-08-27T04:23:40.936Z,14.40
2018-08-27T04:26:09.406Z,14.40
2018-08-27T04:28:37.908Z,14.50
2018-08-27T04:31:06.386Z,14.50
2018-08-27T04:33:34.835Z,14.70
2018-08-27T04:36:03.308Z,14.70
2018-08-27T04:38:31.805Z,14.70
2018-08-27T04:41:00.271Z,14.80
2018-08-27T04:43:29.366Z,14.80
2018-08-27T04:45:58.594Z,14.80
2018-08-27T04:48:27.049Z,14.80
2018-08-27T04:50:55.544Z,14.90
2018-08-27T04:53:23.965Z,14.90
2018-08-27T04:55:52.455Z,15.00
2018-08-27T04:58:22.470Z,15.00
2018-08-27T05:00:50.940Z,15.10
2018-08-27T05:03:19.379Z,15.10
2018-08-27T05:05:47.833Z,15.10
2018-08-27T05:08:16.251Z,15.00
2018-08-27T05:10:44.701Z,15.00
2018-08-27T05:13:13.175Z,15.10
2018-08-27T05:15:41.609Z,15.10
2018-08-27T05:18:10.066Z,15.20
2018-08-27T05:20:38.525Z,15.20
2018-08-27T05:23:07.030Z,15.10
2018-08-27T05:25:35.478Z,15.10
2018-08-27T05:28:03.940Z,15.20
2018-08-27T05:30:33.003Z,15.30
2018-08-27T05:33:01.462Z,15.20
2018-08-27T05:35:29.924Z,15.20
2018-08-27T05:37:58.420Z,15.30
2018-08-27T05:40:26.942Z,15.30
2018-08-27T05:42:55.389Z,15.30
2018-08-27T05:45:23.867Z,15.30
2018-08-27T05:47:52.383Z,15.40
2018-08-27T05:50:20.922Z,15.40
2018-08-27T05:52:49.388Z,15.30
2018-08-27T05:55:17.824Z,15.30
2018-08-27T05:57:46.554Z,15.40
2018-08-27T06:00:15.241Z,15.40
2018-08-27T06:02:43.710Z,15.50
2018-08-27T06:05:12.879Z,15.50
2018-08-27T06:07:41.338Z,15.50
2018-08-27T06:10:09.852Z,15.50
2018-08-27T06:12:38.362Z,15.50
2018-08-27T06:15:08.250Z,15.50
2018-08-27T06:17:37.397Z,15.60
2018-08-27T06:20:06.538Z,15.60
2018-08-27T06:22:35.059Z,15.70
2018-08-27T06:25:03.651Z,15.70
2018-08-27T06:27:32.054Z,15.70
2018-08-27T06:30:00.483Z,15.80
2018-08-27T06:32:28.999Z,15.80
2018-08-27T06:34:57.450Z,15.80
2018-08-27T06:37:25.881Z,15.80
2018-08-27T06:39:54.487Z,15.90
2018-08-27T06:42:22.961Z,16.00
2018-08-27T06:44:51.409Z,16.00
2018-08-27T06:47:19.889Z,16.10
2018-08-27T06:49:48.361Z,16.20
2018-08-27T06:52:16.824Z,16.20
2018-08-27T06:54:45.249Z,16.40
2018-08-27T06:57:13.725Z,16.30
2018-08-27T06:59:42.142Z,16.30
2018-08-27T07:02:10.606Z,16.40
2018-08-27T07:04:39.053Z,16.40
2018-08-27T07:07:07.839Z,16.50
2018-08-27T07:09:36.551Z,16.70
2018-08-27T07:12:05.061Z,16.80
2018-08-27T07:14:33.493Z,16.90
2018-08-27T07:17:01.945Z,17.10
2018-08-27T07:19:30.378Z,17.20
2018-08-27T07:21:58.841Z,17.10
2018-08-27T07:24:27.625Z,17.40
2018-08-27T07:26:56.093Z,17.40
2018-08-27T07:29:24.517Z,17.30
2018-08-27T07:31:52.985Z,17.30
2018-08-27T07:34:21.427Z,17.50
2018-08-27T07:36:49.895Z,17.50
2018-08-27T07:39:18.401Z,17.50
2018-08-27T07:41:46.862Z,17.70
2018-08-27T07:44:15.290Z,17.80
2018-08-27T07:46:43.738Z,17.40
2018-08-27T07:49:12.279Z,17.80
2018-08-27T07:51:40.874Z,17.60
2018-08-27T07:54:09.327Z,17.40
2018-08-27T07:56:37.787Z,17.40
2018-08-27T07:59:06.305Z,17.40
2018-08-27T08:01:35.151Z,17.30
2018-08-27T08:04:03.725Z,17.30
2018-08-27T08:06:32.172Z,17.20
2018-08-27T08:09:00.649Z,17.30
2018-08-27T08:11:29.091Z,17.20
2018-08-27T08:13:57.600Z,17.50
2018-08-27T08:16:26.065Z,17.60
2018-08-27T08:18:54.558Z,17.90
2018-08-27T08:21:23.015Z,18.00
2018-08-27T08:23:51.567Z,17.80
2018-08-27T08:26:20.030Z,17.80
2018-08-27T08:28:48.516Z,18.10
2018-08-27T08:31:16.942Z,18.10
2018-08-27T08:33:45.389Z,18.50
2018-08-27T08:36:14.449Z,18.80
2018-08-27T08:38:42.889Z,19.00
2018-08-27T08:41:11.932Z,18.70
2018-08-27T08:43:40.376Z,18.90
2018-08-27T08:46:08.842Z,18.80
2018-08-27T08:48:37.273Z,18.80
2018-08-27T08:51:05.789Z,18.90
2018-08-27T08:53:34.282Z,19.10
2018-08-27T08:56:02.743Z,19.50
2018-08-27T08:58:31.203Z,19.80
2018-08-27T09:00:59.671Z,19.60
2018-08-27T09:03:28.159Z,19.40
2018-08-27T09:05:56.636Z,19.60
2018-08-27T09:08:25.138Z,20.10
2018-08-27T09:10:53.584Z,20.00
2018-08-27T09:13:22.086Z,19.90
2018-08-27T09:15:50.506Z,20.10
2018-08-27T09:18:18.934Z,20.00
2018-08-27T09:20:47.435Z,20.20
2018-08-27T09:23:15.958Z,19.90
2018-08-27T09:25:44.435Z,19.70
2018-08-27T09:28:12.906Z,19.80
2018-08-27T09:30:41.392Z,19.70
2018-08-27T09:33:09.866Z,19.70
2018-08-27T09:35:38.373Z,20.00
2018-08-27T09:38:06.911Z,20.00
2018-08-27T09:40:35.394Z,19.70
2018-08-27T09:43:03.867Z,19.70
2018-08-27T09:45:32.314Z,20.10
2018-08-27T09:48:00.785Z,19.70
2018-08-27T09:50:29.234Z,19.90
2018-08-27T09:52:57.869Z,20.00
2018-08-27T09:55:26.225Z,20.10
2018-08-27T09:57:54.690Z,20.10
2018-08-27T10:00:28.442Z,20.30
2018-08-27T10:02:56.952Z,20.30
2018-08-27T10:05:25.699Z,20.30
2018-08-27T10:07:54.555Z,20.20
2018-08-27T10:10:23.006Z,20.30
2018-08-27T10:12:51.490Z,20.20
2018-08-27T10:15:19.937Z,20.20
2018-08-27T10:17:48.507Z,20.40
2018-08-27T10:20:16.951Z,20.50
2018-08-27T10:22:45.522Z,20.90
2018-08-27T10:25:14.438Z,21.30
2018-08-27T10:27:43.628Z,21.80
2018-08-27T10:30:12.938Z,21.80
2018-08-27T10:32:41.499Z,21.70
2018-08-27T10:35:09.973Z,22.00
2018-08-27T10:37:38.535Z,22.00
2018-08-27T10:40:07.957Z,22.40
2018-08-27T10:42:36.409Z,22.00
2018-08-27T10:45:04.955Z,22.30
2018-08-27T10:47:33.402Z,21.70
2018-08-27T10:50:01.904Z,21.50
2018-08-27T10:52:30.350Z,21.50
2018-08-27T10:54:58.891Z,21.10
2018-08-27T10:57:27.379Z,20.90
2018-08-27T10:59:55.879Z,21.20
2018-08-27T11:02:24.361Z,22.30
2018-08-27T11:04:52.983Z,21.90
2018-08-27T11:07:24.236Z,21.90
2018-08-27T11:09:54.255Z,21.80
2018-08-27T11:12:22.799Z,21.80
2018-08-27T11:14:51.898Z,22.10
2018-08-27T11:17:21.324Z,22.20
2018-08-27T11:19:49.994Z,21.80
2018-08-27T11:22:18.627Z,22.20
2018-08-27T11:24:47.105Z,22.50
2018-08-27T11:27:15.617Z,22.40
2018-08-27T11:29:44.100Z,22.60
2018-08-27T11:32:12.576Z,22.60
2018-08-27T11:34:41.058Z,22.90
2018-08-27T11:37:09.527Z,22.20
2018-08-27T11:39:37.974Z,22.30
2018-08-27T11:42:06.565Z,22.50
2018-08-27T11:44:34.989Z,22.40
2018-08-27T11:47:03.454Z,22.80
2018-08-27T11:49:31.919Z,22.40
2018-08-27T11:52:00.408Z,22.50
2018-08-27T11:54:28.887Z,22.80
2018-08-27T11:56:57.334Z,22.80
2018-08-27T11:59:25.818Z,22.30
2018-08-27T12:01:54.296Z,22.80
2018-08-27T12:04:22.830Z,22.40
2018-08-27T12:06:51.309Z,22.50
2018-08-27T12:09:19.764Z,22.50
2018-08-27T12:11:48.275Z,22.70
2018-08-27T12:14:16.786Z,22.40
2018-08-27T12:16:45.320Z,22.50
2018-08-27T12:19:13.754Z,22.70
2018-08-27T12:21:42.201Z,22.50
2018-08-27T12:24:10.682Z,22.90
2018-08-27T12:26:39.170Z,22.80
2018-08-27T12:29:07.637Z,22.80
2018-08-27T12:31:36.108Z,22.80
2018-08-27T12:34:04.573Z,22.90
2018-08-27T12:36:33.053Z,22.30
2018-08-27T12:39:01.510Z,21.70
2018-08-27T12:41:29.970Z,22.00
2018-08-27T12:43:58.414Z,22.30
2018-08-27T12:46:26.906Z,22.90
2018-08-27T12:48:55.370Z,23.60
2018-08-27T12:51:23.900Z,23.70
2018-08-27T12:53:52.320Z,23.60
2018-08-27T12:56:20.802Z,23.20
2018-08-27T12:58:49.329Z,23.80
2018-08-27T13:01:18.499Z,23.10
2018-08-27T13:03:47.133Z,23.50
2018-08-27T13:06:15.801Z,23.00
2018-08-27T13:08:45.166Z,22.80
2018-08-27T13:11:13.636Z,22.40
2018-08-27T13:13:42.154Z,22.20
2018-08-27T13:16:10.821Z,22.20
2018-08-27T13:18:39.541Z,22.70
2018-08-27T13:21:13.217Z,22.70
2018-08-27T13:23:42.658Z,22.70
2018-08-27T13:26:11.505Z,22.00
2018-08-27T13:28:40.153Z,22.10
2018-08-27T13:31:09.337Z,22.40
2018-08-27T13:33:38.571Z,22.50
2018-08-27T13:36:07.191Z,23.20
2018-08-27T13:38:37.010Z,23.80
2018-08-27T13:41:05.565Z,23.30
2018-08-27T13:43:34.563Z,23.40
2018-08-27T13:46:03.061Z,23.90
2018-08-27T13:48:31.578Z,23.80
2018-08-27T13:51:00.171Z,23.70
2018-08-27T13:53:28.627Z,24.40
2018-08-27T13:55:57.894Z,23.90
2018-08-27T13:58:26.544Z,23.50
2018-08-27T14:00:55.174Z,23.90
2018-08-27T14:03:23.714Z,23.90
2018-08-27T14:05:52.897Z,24.60
2018-08-27T14:08:21.433Z,24.00
2018-08-27T14:10:50.020Z,23.60
2018-08-27T14:13:18.387Z,23.80
2018-08-27T14:15:46.871Z,23.40
2018-08-27T14:18:15.376Z,23.40
2018-08-27T14:20:43.998Z,23.10
2018-08-27T14:23:12.410Z,23.20
2018-08-27T14:25:40.952Z,23.20
2018-08-27T14:28:09.362Z,23.60
2018-08-27T14:30:37.827Z,23.30
2018-08-27T14:33:06.369Z,22.90
2018-08-27T14:35:34.823Z,23.90
2018-08-27T14:38:03.329Z,24.60
2018-08-27T14:40:31.837Z,24.30
2018-08-27T14:43:00.339Z,23.40
2018-08-27T14:45:28.882Z,23.20
2018-08-27T14:47:57.402Z,23.00
2018-08-27T14:50:26.601Z,22.60
2018-08-27T14:52:55.058Z,22.60
2018-08-27T14:55:23.557Z,22.90
2018-08-27T14:57:52.022Z,23.00
2018-08-27T15:00:20.473Z,22.70
2018-08-27T15:02:48.943Z,22.70
2018-08-27T15:05:17.409Z,22.50
2018-08-27T15:07:45.887Z,22.70
2018-08-27T15:10:14.507Z,22.30
2018-08-27T15:12:43.022Z,22.30
2018-08-27T15:15:11.506Z,22.20
2018-08-27T15:17:39.984Z,22.30
2018-08-27T15:20:08.708Z,22.50
2018-08-27T15:22:39.402Z,22.30
2018-08-27T15:25:07.908Z,22.00
2018-08-27T15:27:36.477Z,22.30
2018-08-27T15:30:05.579Z,22.10
2018-08-27T15:32:34.090Z,22.10
2018-08-27T15:35:02.563Z,21.70
2018-08-27T15:37:31.027Z,21.90
2018-08-27T15:40:06.766Z,21.80
2018-08-27T15:42:35.210Z,21.70
2018-08-27T15:45:08.158Z,21.90
2018-08-27T15:47:38.444Z,21.80
2018-08-27T15:50:07.908Z,21.80
2018-08-27T15:52:36.422Z,22.20
2018-08-27T15:55:04.956Z,22.10
2018-08-27T15:57:33.451Z,21.30
2018-08-27T16:00:02.419Z,21.30
2018-08-27T16:02:30.969Z,21.40
2018-08-27T16:04:59.477Z,21.50
2018-08-27T16:07:28.059Z,21.50
2018-08-27T16:09:56.520Z,21.60
2018-08-27T16:12:24.987Z,21.70
2018-08-27T16:14:53.445Z,21.30
2018-08-27T16:17:21.987Z,21.30
2018-08-27T16:19:50.433Z,21.30
2018-08-27T16:22:18.980Z,20.90
2018-08-27T16:24:47.474Z,20.90
2018-08-27T16:27:15.954Z,21.00
2018-08-27T16:29:44.417Z,21.00
2018-08-27T16:32:12.854Z,20.80
2018-08-27T16:34:41.311Z,20.80
2018-08-27T16:37:09.978Z,20.50
2018-08-27T16:39:38.529Z,20.50
2018-08-27T16:42:06.973Z,20.50
2018-08-27T16:44:35.434Z,20.60
2018-08-27T16:47:03.886Z,20.50
2018-08-27T16:49:32.412Z,20.30
2018-08-27T16:52:00.850Z,20.40
2018-08-27T16:54:29.318Z,20.40
2018-08-27T16:56:57.769Z,20.10
2018-08-27T16:59:26.253Z,20.30
2018-08-27T17:01:54.699Z,20.10
2018-08-27T17:04:23.216Z,20.10
2018-08-27T17:06:51.704Z,20.00
2018-08-27T17:09:20.268Z,20.00
2018-08-27T17:11:49.761Z,20.10
2018-08-27T17:14:18.250Z,20.00
2018-08-27T17:16:46.790Z,20.00
2018-08-27T17:19:15.273Z,19.90
2018-08-27T17:21:43.770Z,19.90
2018-08-27T17:24:12.233Z,19.90
2018-08-27T17:26:40.689Z,19.60
2018-08-27T17:29:09.195Z,19.50
2018-08-27T17:31:37.650Z,19.40
2018-08-27T17:34:06.254Z,19.20
2018-08-27T17:36:34.716Z,19.40
2018-08-27T17:39:03.298Z,19.40
2018-08-27T17:41:31.777Z,19.40
2018-08-27T17:44:00.232Z,19.30
2018-08-27T17:46:28.697Z,19.10
2018-08-27T17:48:57.148Z,19.20
2018-08-27T17:51:25.639Z,19.20
2018-08-27T17:53:54.123Z,19.10
2018-08-27T17:56:22.601Z,18.90
2018-08-27T17:58:51.110Z,18.80
2018-08-27T18:01:19.558Z,18.80
2018-08-27T18:03:48.074Z,18.60
2018-08-27T18:06:16.994Z,18.70
2018-08-27T18:08:45.495Z,18.60
2018-08-27T18:11:14.490Z,18.60
2018-08-27T18:13:43.220Z,18.50
2018-08-27T18:16:11.674Z,18.50
2018-08-27T18:18:40.186Z,18.40
2018-08-27T18:21:08.682Z,18.40
2018-08-27T18:23:37.414Z,18.50
2018-08-27T18:26:05.948Z,18.40
2018-08-27T18:28:34.577Z,18.50
2018-08-27T18:31:03.134Z,18.50
2018-08-27T18:33:33.537Z,18.40
2018-08-27T18:36:02.051Z,18.40
2018-08-27T18:38:30.611Z,18.40
2018-08-27T18:40:59.072Z,18.30
2018-08-27T18:43:27.757Z,18.20
2018-08-27T18:45:56.222Z,18.30
2018-08-27T18:48:24.671Z,18.40
2018-08-27T18:50:53.314Z,18.30
2018-08-27T18:53:21.776Z,18.30
2018-08-27T18:55:50.283Z,18.30
2018-08-27T18:58:18.735Z,18.20
2018-08-27T19:00:47.203Z,18.00
2018-08-27T19:03:15.671Z,18.10
2018-08-27T19:05:44.186Z,18.10
2018-08-27T19:08:12.684Z,18.00
2018-08-27T19:10:41.140Z,18.10
2018-08-27T19:13:09.686Z,18.20
2018-08-27T19:15:38.146Z,18.10
2018-08-27T19:18:06.654Z,18.10
2018-08-27T19:20:35.138Z,18.20
2018-08-27T19:23:03.634Z,18.10
2018-08-27T19:25:32.117Z,18.20
2018-08-27T19:28:01.681Z,18.10
2018-08-27T19:30:30.191Z,18.00
2018-08-27T19:32:58.740Z,18.10
2018-08-27T19:35:27.293Z,18.10
2018-08-27T19:37:55.688Z,18.00
2018-08-27T19:40:24.138Z,18.00
2018-08-27T19:42:52.835Z,17.90
2018-08-27T19:45:21.304Z,18.00
2018-08-27T19:47:50.324Z,18.00
2018-08-27T19:50:18.882Z,17.80
2018-08-27T19:52:47.355Z,17.80
2018-08-27T19:55:15.855Z,17.80
2018-08-27T19:57:44.338Z,17.90
2018-08-27T20:00:12.887Z,17.90
2018-08-27T20:02:41.522Z,17.80
2018-08-27T20:05:09.859Z,17.80
2018-08-27T20:07:38.314Z,17.80
2018-08-27T20:10:06.822Z,17.70
2018-08-27T20:12:35.294Z,17.80
2018-08-27T20:15:03.890Z,17.70
2018-08-27T20:17:32.344Z,17.70
2018-08-27T20:20:00.782Z,17.80
2018-08-27T20:22:29.356Z,17.60
2018-08-27T20:24:57.861Z,17.60
2018-08-27T20:27:26.381Z,17.70
2018-08-27T20:29:54.849Z,17.60
2018-08-27T20:32:23.318Z,17.60
2018-08-27T20:34:51.783Z,17.60
2018-08-27T20:37:20.259Z,17.50
2018-08-27T20:39:48.787Z,17.60
2018-08-27T20:42:17.220Z,17.60
2018-08-27T20:44:45.702Z,17.60
2018-08-27T20:47:14.186Z,17.60
2018-08-27T20:49:42.659Z,17.50
2018-08-27T20:52:11.480Z,17.50
2018-08-27T20:54:39.997Z,17.40
2018-08-27T20:57:08.527Z,17.40
2018-08-27T20:59:36.955Z,17.40
2018-08-27T21:02:05.566Z,17.40
2018-08-27T21:04:34.079Z,17.40
2018-08-27T21:07:02.530Z,17.50
2018-08-27T21:09:31.070Z,17.40
2018-08-27T21:11:59.539Z,17.40
2018-08-27T21:15:07.221Z,17.40
2018-08-27T21:17:36.193Z,17.30
2018-08-27T21:20:05.258Z,17.30
2018-08-27T21:22:34.286Z,17.30
2018-08-27T21:25:03.705Z,17.30
2018-08-27T21:27:32.186Z,17.30
2018-08-27T21:30:00.734Z,17.30
2018-08-27T21:32:29.189Z,17.20
2018-08-27T21:34:57.657Z,17.20
2018-08-27T21:37:26.171Z,17.10
2018-08-27T21:39:54.983Z,17.20
2018-08-27T21:42:23.859Z,17.20
2018-08-27T21:44:52.314Z,17.10
2018-08-27T21:47:21.024Z,17.00
2018-08-27T21:49:49.618Z,17.10
2018-08-27T21:52:18.122Z,17.10
2018-08-27T21:54:46.558Z,17.00
2018-08-27T21:57:15.065Z,16.90
2018-08-27T21:59:43.505Z,16.80
2018-08-27T22:02:17.339Z,16.80
2018-08-27T22:04:45.814Z,16.80
2018-08-27T22:07:14.400Z,16.80
2018-08-27T22:09:42.894Z,16.80
2018-08-27T22:12:11.385Z,16.70
2018-08-27T22:14:39.837Z,16.70
2018-08-27T22:17:09.865Z,16.70
2018-08-27T22:19:39.251Z,16.70
2018-08-27T22:22:07.744Z,16.60
2018-08-27T22:24:36.243Z,16.50
2018-08-27T22:27:04.769Z,16.50
2018-08-27T22:29:33.265Z,16.50
2018-08-27T22:32:01.733Z,16.60
2018-08-27T22:34:30.192Z,16.50
2018-08-27T22:36:58.667Z,16.60
2018-08-27T22:39:27.133Z,16.60
2018-08-27T22:41:55.719Z,16.60
2018-08-27T22:44:24.294Z,16.60
2018-08-27T22:46:53.398Z,16.60
2018-08-27T22:49:22.219Z,16.60
2018-08-27T22:51:50.855Z,16.60
2018-08-27T22:54:19.923Z,16.60
2018-08-27T22:56:48.406Z,16.60
2018-08-27T22:59:17.716Z,16.60
2018-08-27T23:01:46.941Z,16.60
2018-08-27T23:04:20.813Z,16.60
2018-08-27T23:06:49.297Z,16.60
2018-08-27T23:09:17.783Z,16.50
2018-08-27T23:11:46.252Z,16.60
2018-08-27T23:14:14.716Z,16.60
2018-08-27T23:16:43.222Z,16.60
2018-08-27T23:19:12.311Z,16.60
2018-08-27T23:21:40.786Z,16.50
2018-08-27T23:24:09.315Z,16.50
2018-08-27T23:26:37.851Z,16.50
2018-08-27T23:29:06.780Z,16.50
2018-08-27T23:31:35.312Z,16.50
2018-08-27T23:34:03.766Z,16.50
2018-08-27T23:36:32.246Z,16.50
2018-08-27T23:39:00.745Z,16.60
2018-08-27T23:41:29.239Z,16.60
2018-08-27T23:43:57.718Z,16.50
2018-08-27T23:46:26.171Z,16.50
2018-08-27T23:48:54.642Z,16.50
2018-08-27T23:51:23.126Z,16.50
2018-08-27T23:53:51.598Z,16.40
2018-08-27T23:56:20.126Z,16.40
2018-08-27T23:58:48.571Z,16.40
